Aalborg Airport

EKYT · North Denmark, 丹麦

罗盘
风向 的 风向 100° Aalborg Airport 8L/26R
风: 6 kt, 2 beaufort

6 kt

2 kt
改变
0 ft 5.000 10.000 15.000 20.000
Cloud Cloud Cloud Cloud Cloud Cloud
BKN 3.000
Cloud Cloud Cloud Cloud Cloud Cloud
BKN 14.000
METAR EKYT 020043Z AUTO 10006KT 2900 BR BKN030/// BKN140/// 05/05 Q1007

METAR Aalborg Airport - EKYT/AAL

Aalborg Airport是,丹麦中的中型机场。 该机场位于纬度57,09418和经度9,85574。 该机场有2条跑道: 8L/26R 和 8R/26L. 本场的ICAO机场代码为EKYT。 该机场的IATA代码为AAL。 机场在Kobenhavn FIR中。

该航空气象观测是针对Aalborg Airport在2024年3月2日 01:43, 当地时间进行的。

机场观察

风向为100°,速度为6 kt。

可见度为2,9 km。

有碎云在3.000 ft的高度 和 碎云在14.000 ft的高度。 破损或更高的上限为3.000 ft。

当前天气为薄雾。 温度为5 °C,阵风为1 °C。 露点为5 °C,相对湿度为100%。 海平面上的气压为1007 hPa (QNH)。

白天

今天,太阳从07:09升起,在17:55降落。 这适用于Aalborg Airport,世界夏令时可能有所不同。 当地时间与世界标准时间之间的时差为+1 小时。 当前,没有夏令时有效。

公司介绍

我们没有关于这个机场的公司信息。

体会

到Vliegles.nl去找飞行课程,跳伞和其他飞行体验。 浏览页面,了解Aalborg Airport附近所有可用的活动。 你也可以使用搜索功能来寻找你所在地附近的特定飞行课程、跳伞或其他飞行体验。

跑道

Id 标题 侧风 逆风 侧风 %
8L/26R 083°-263° 2 kt 6 kt 29 %
8R/26L 083°-263° 2 kt 6 kt 29 %

逆风成分最大的方向会被突出显示,并用于横风计算。 这并不一定意味着这个方向在使用。

乌云

3.000 ft BKN 碎云
14.000 ft BKN 碎云

温度 & 天气

天气 薄雾
温度 5 °C
露点 5 °C
相对湿度 100%
风寒 1 °C
Kp-index 0 (0-9)

白天

日出
07:09 (5:17)
中午
12:32
日落
17:55

小工具

你想在你的网站上有一个关于Aalborg Airport的当前航空天气(METAR)的小部件吗?

显示HTML代码
?>